createdAt,value
2023-05-10T00:00:20.269Z,198
2023-05-10T00:00:52.297Z,217
2023-05-10T00:01:23.906Z,208
2023-05-10T00:01:56.082Z,198
2023-05-10T00:02:28.173Z,186
2023-05-10T00:03:00.054Z,192
2023-05-10T00:03:31.809Z,207
2023-05-10T00:04:03.992Z,184
2023-05-10T00:04:35.888Z,227
2023-05-10T00:05:08.111Z,219
2023-05-10T00:05:39.857Z,224
2023-05-10T00:06:11.835Z,214
2023-05-10T00:06:43.947Z,219
2023-05-10T00:07:15.920Z,205
2023-05-10T00:07:47.874Z,218
2023-05-10T00:08:19.795Z,196
2023-05-10T00:08:51.935Z,197
2023-05-10T00:09:23.621Z,223
2023-05-10T00:09:55.578Z,223
2023-05-10T00:10:27.716Z,213
2023-05-10T00:10:59.743Z,217
2023-05-10T00:11:31.678Z,215
2023-05-10T00:12:03.561Z,218
2023-05-10T00:12:35.487Z,227
2023-05-10T00:13:07.686Z,224
2023-05-10T00:13:39.572Z,224
2023-05-10T00:14:11.467Z,223
2023-05-10T00:14:43.403Z,224
2023-05-10T00:15:15.633Z,217
2023-05-10T00:15:47.359Z,221
2023-05-10T00:16:19.436Z,221
2023-05-10T00:16:51.438Z,218
2023-05-10T00:17:23.364Z,215
2023-05-10T00:17:55.551Z,217
2023-05-10T00:18:27.175Z,222
2023-05-10T00:18:59.380Z,212
2023-05-10T00:19:31.555Z,219
2023-05-10T00:20:03.105Z,223
2023-05-10T00:20:35.153Z,220
2023-05-10T00:21:07.260Z,221
2023-05-10T00:21:39.398Z,226
2023-05-10T00:22:11.141Z,223
2023-05-10T00:22:43.013Z,208
2023-05-10T00:23:15.083Z,200
2023-05-10T00:23:47.084Z,204
2023-05-10T00:24:18.858Z,218
2023-05-10T00:24:51.090Z,219
2023-05-10T00:25:23.211Z,210
2023-05-10T00:25:54.891Z,207
2023-05-10T00:26:26.853Z,220
2023-05-10T00:26:58.861Z,212
2023-05-10T00:27:31.147Z,209
2023-05-10T00:28:02.948Z,225
2023-05-10T00:28:34.772Z,224
2023-05-10T00:29:06.870Z,224
2023-05-10T00:29:38.989Z,196
2023-05-10T00:30:11.115Z,209
2023-05-10T00:30:42.696Z,219
2023-05-10T00:31:14.819Z,191
2023-05-10T00:31:46.817Z,221
2023-05-10T00:32:19.200Z,219
2023-05-10T00:32:50.937Z,223
2023-05-10T00:33:22.716Z,222
2023-05-10T00:33:54.739Z,224
2023-05-10T00:34:26.572Z,207
2023-05-10T00:34:58.631Z,209
2023-05-10T00:35:30.620Z,218
2023-05-10T00:36:02.663Z,219
2023-05-10T00:36:34.324Z,217
2023-05-10T00:37:06.428Z,222
2023-05-10T00:37:38.628Z,222
2023-05-10T00:38:10.904Z,222
2023-05-10T00:38:42.933Z,212
2023-05-10T00:39:14.490Z,213
2023-05-10T00:39:46.412Z,203
2023-05-10T00:40:18.693Z,204
2023-05-10T00:40:50.437Z,218
2023-05-10T00:41:22.537Z,224
2023-05-10T00:41:54.318Z,223
2023-05-10T00:42:26.516Z,218
2023-05-10T00:42:58.247Z,219
2023-05-10T00:43:30.304Z,224
2023-05-10T00:44:02.253Z,225
2023-05-10T00:44:34.141Z,225
2023-05-10T00:45:06.335Z,225
2023-05-10T00:45:38.200Z,218
2023-05-10T00:46:10.261Z,213
2023-05-10T00:46:42.242Z,221
2023-05-10T00:47:13.985Z,221
2023-05-10T00:47:46.078Z,221
2023-05-10T00:48:18.115Z,222
2023-05-10T00:48:50.091Z,221
2023-05-10T00:49:21.909Z,219
2023-05-10T00:49:54.105Z,218
2023-05-10T00:50:25.959Z,219
2023-05-10T00:50:58.243Z,219
2023-05-10T00:51:29.801Z,219
2023-05-10T00:52:01.762Z,219
2023-05-10T00:52:33.740Z,219
2023-05-10T00:53:05.873Z,219
2023-05-10T00:53:37.809Z,219
2023-05-10T00:54:09.676Z,219
2023-05-10T00:54:41.775Z,219
2023-05-10T00:55:13.954Z,219
2023-05-10T00:55:45.645Z,219
2023-05-10T00:56:17.672Z,219
2023-05-10T00:56:49.768Z,219
2023-05-10T00:57:21.696Z,219
2023-05-10T00:57:53.568Z,219
2023-05-10T00:58:25.694Z,219
2023-05-10T00:58:57.596Z,219
2023-05-10T00:59:29.678Z,218
2023-05-10T01:00:01.739Z,218
2023-05-10T01:00:33.526Z,218
2023-05-10T01:01:05.711Z,219
2023-05-10T01:01:37.820Z,218
2023-05-10T01:02:09.448Z,218
2023-05-10T01:02:41.513Z,219
2023-05-10T01:03:13.593Z,218
2023-05-10T01:03:45.746Z,218
2023-05-10T01:04:17.527Z,218
2023-05-10T01:04:49.391Z,218
2023-05-10T01:05:21.729Z,218
2023-05-10T01:05:53.597Z,218
2023-05-10T01:06:25.187Z,218
2023-05-10T01:06:57.216Z,213
2023-05-10T01:07:29.227Z,217
2023-05-10T01:08:01.491Z,217
2023-05-10T01:08:33.322Z,217
2023-05-10T01:09:05.261Z,217
2023-05-10T01:09:37.407Z,217
2023-05-10T01:10:09.032Z,217
2023-05-10T01:10:41.429Z,217
2023-05-10T01:11:13.235Z,216
2023-05-10T01:11:45.194Z,217
2023-05-10T01:12:17.062Z,217
2023-05-10T01:12:48.994Z,217
2023-05-10T01:13:21.510Z,217
2023-05-10T01:13:53.059Z,217
2023-05-10T01:14:24.936Z,217
2023-05-10T01:14:56.942Z,217
2023-05-10T01:15:29.140Z,217
2023-05-10T01:16:01.088Z,219
2023-05-10T01:16:32.769Z,219
2023-05-10T01:17:04.805Z,219
2023-05-10T01:17:36.796Z,219
2023-05-10T01:18:09.120Z,219
2023-05-10T01:18:40.873Z,219
2023-05-10T01:19:12.779Z,220
2023-05-10T01:19:44.736Z,220
2023-05-10T01:20:17.079Z,220
2023-05-10T01:20:48.582Z,220
2023-05-10T01:21:20.855Z,219
2023-05-10T01:21:52.533Z,220
2023-05-10T01:22:24.767Z,220
2023-05-10T01:22:56.461Z,220
2023-05-10T01:23:28.511Z,220
2023-05-10T01:24:00.508Z,220
2023-05-10T01:24:32.450Z,220
2023-05-10T01:25:04.391Z,220
2023-05-10T01:25:36.557Z,220
2023-05-10T01:26:08.524Z,220
2023-05-10T01:26:40.417Z,220
2023-05-10T01:27:12.294Z,220
2023-05-10T01:27:44.317Z,220
2023-05-10T01:28:16.381Z,220
2023-05-10T01:28:48.428Z,219
2023-05-10T01:29:20.228Z,219
2023-05-10T01:30:05.098Z,219
2023-05-10T01:30:24.570Z,219
2023-05-10T01:30:56.500Z,219
2023-05-10T01:31:28.318Z,219
2023-05-10T01:32:00.212Z,219
2023-05-10T01:32:32.381Z,219
2023-05-10T01:33:04.228Z,219
2023-05-10T01:33:36.221Z,219
2023-05-10T01:34:08.206Z,219
2023-05-10T01:34:40.246Z,219
2023-05-10T01:35:12.096Z,219
2023-05-10T01:35:44.011Z,219
2023-05-10T01:36:16.041Z,219
2023-05-10T01:36:47.978Z,219
2023-05-10T01:37:19.869Z,219
2023-05-10T01:37:51.908Z,219
2023-05-10T01:38:24.244Z,219
2023-05-10T01:38:56.049Z,219
2023-05-10T01:39:27.998Z,219
2023-05-10T01:39:59.839Z,219
2023-05-10T01:40:31.842Z,219
2023-05-10T01:41:03.871Z,219
2023-05-10T01:41:35.784Z,219
2023-05-10T01:42:07.763Z,219
2023-05-10T01:42:39.733Z,219
2023-05-10T01:43:11.808Z,219
2023-05-10T01:43:43.887Z,219
2023-05-10T01:44:15.666Z,219
2023-05-10T01:44:47.715Z,219
2023-05-10T01:45:19.809Z,219
2023-05-10T01:45:51.803Z,219
2023-05-10T01:46:23.569Z,219
2023-05-10T01:46:55.781Z,219
2023-05-10T01:47:27.748Z,219
2023-05-10T01:47:59.480Z,219
2023-05-10T01:48:31.537Z,219
2023-05-10T01:49:03.593Z,219
2023-05-10T01:49:35.625Z,219
2023-05-10T01:50:07.435Z,219
2023-05-10T01:50:39.380Z,219
2023-05-10T01:51:11.514Z,219
2023-05-10T01:51:43.521Z,219
2023-05-10T01:52:15.334Z,219
2023-05-10T01:52:47.341Z,219
2023-05-10T01:53:19.205Z,219
2023-05-10T01:53:51.452Z,219
2023-05-10T01:54:23.083Z,219
2023-05-10T01:54:55.109Z,219
2023-05-10T01:55:27.320Z,219
2023-05-10T01:55:59.243Z,219
2023-05-10T01:56:31.402Z,219
2023-05-10T01:57:03.123Z,219
2023-05-10T01:57:35.138Z,219
2023-05-10T01:58:07.169Z,219
2023-05-10T01:58:39.096Z,219
2023-05-10T01:59:11.154Z,219
2023-05-10T01:59:43.293Z,219
2023-05-10T02:00:15.798Z,219
2023-05-10T02:00:47.015Z,219
2023-05-10T02:01:19.170Z,219
2023-05-10T02:01:51.309Z,219
2023-05-10T02:02:23.012Z,219
2023-05-10T02:02:54.813Z,219
2023-05-10T02:03:26.879Z,219
2023-05-10T02:03:59.106Z,219
2023-05-10T02:04:31.009Z,219
2023-05-10T02:05:02.751Z,219
2023-05-10T02:05:34.760Z,219
2023-05-10T02:06:06.888Z,219
2023-05-10T02:06:38.826Z,215
2023-05-10T02:07:10.759Z,215
2023-05-10T02:07:42.833Z,215
2023-05-10T02:08:14.846Z,215
2023-05-10T02:08:46.711Z,215
2023-05-10T02:09:18.650Z,215
2023-05-10T02:09:50.815Z,215
2023-05-10T02:10:22.534Z,215
2023-05-10T02:10:54.449Z,215
2023-05-10T02:11:26.494Z,215
2023-05-10T02:11:58.612Z,215
2023-05-10T02:12:30.543Z,215
2023-05-10T02:13:02.416Z,215
2023-05-10T02:13:34.299Z,215
2023-05-10T02:14:06.660Z,215
2023-05-10T02:14:38.658Z,215
2023-05-10T02:15:10.603Z,215
2023-05-10T02:15:42.402Z,215
2023-05-10T02:16:14.383Z,214
2023-05-10T02:16:46.443Z,214
2023-05-10T02:17:18.167Z,214
2023-05-10T02:17:50.505Z,214
2023-05-10T02:18:22.363Z,214
2023-05-10T02:18:54.612Z,214
2023-05-10T02:19:26.197Z,214
2023-05-10T02:19:58.133Z,214
2023-05-10T02:20:30.200Z,214
2023-05-10T02:21:02.206Z,214
2023-05-10T02:21:33.921Z,214
2023-05-10T02:22:06.049Z,212
2023-05-10T02:22:38.002Z,213
2023-05-10T02:23:09.999Z,213
2023-05-10T02:23:41.945Z,213
2023-05-10T02:24:14.092Z,213
2023-05-10T02:24:46.026Z,213
2023-05-10T02:25:17.937Z,213
2023-05-10T02:25:49.883Z,213
2023-05-10T02:26:21.873Z,213
2023-05-10T02:26:53.899Z,213
2023-05-10T02:27:26.030Z,213
2023-05-10T02:27:57.774Z,213
2023-05-10T02:28:29.783Z,213
2023-05-10T02:29:01.936Z,213
2023-05-10T02:29:34.000Z,213
2023-05-10T02:30:05.957Z,213
2023-05-10T02:30:37.703Z,213
2023-05-10T02:31:09.648Z,213
2023-05-10T02:31:41.931Z,213
2023-05-10T02:32:13.822Z,213
2023-05-10T02:32:45.759Z,213
2023-05-10T02:33:17.646Z,213
2023-05-10T02:33:49.783Z,213
2023-05-10T02:34:21.586Z,213
2023-05-10T02:34:53.440Z,202
2023-05-10T02:35:25.568Z,210
2023-05-10T02:35:57.741Z,212
2023-05-10T02:36:29.500Z,212
2023-05-10T02:37:02.429Z,212
2023-05-10T02:37:33.370Z,212
2023-05-10T02:38:05.673Z,212
2023-05-10T02:38:37.228Z,212
2023-05-10T02:39:09.387Z,212
2023-05-10T02:39:41.508Z,212
2023-05-10T02:40:13.417Z,212
2023-05-10T02:40:45.308Z,212
2023-05-10T02:41:17.385Z,212
2023-05-10T02:41:49.398Z,212
2023-05-10T02:42:21.235Z,211
2023-05-10T02:42:53.156Z,209
2023-05-10T02:43:25.430Z,210
2023-05-10T02:43:57.714Z,211
2023-05-10T02:44:29.271Z,211
2023-05-10T02:45:01.394Z,211
2023-05-10T02:45:33.248Z,211
2023-05-10T02:46:05.428Z,211
2023-05-10T02:46:37.077Z,209
2023-05-10T02:47:09.050Z,210
2023-05-10T02:47:41.105Z,208
2023-05-10T02:48:13.298Z,210
2023-05-10T02:48:45.014Z,191
2023-05-10T02:49:17.031Z,213
2023-05-10T02:49:49.011Z,214
2023-05-10T02:50:21.224Z,215
2023-05-10T02:50:52.739Z,214
2023-05-10T02:51:24.703Z,215
2023-05-10T02:51:56.854Z,215
2023-05-10T02:52:28.969Z,215
2023-05-10T02:53:00.870Z,215
2023-05-10T02:53:32.778Z,215
2023-05-10T02:54:04.760Z,215
2023-05-10T02:54:36.809Z,215
2023-05-10T02:55:08.843Z,215
2023-05-10T02:55:40.728Z,215
2023-05-10T02:56:12.584Z,215
2023-05-10T02:56:44.829Z,214
2023-05-10T02:57:16.611Z,214
2023-05-10T02:57:48.549Z,214
2023-05-10T02:58:20.813Z,215
2023-05-10T02:58:52.622Z,214
2023-05-10T02:59:24.497Z,214
2023-05-10T02:59:56.583Z,215
2023-05-10T03:00:28.614Z,214
2023-05-10T03:01:00.550Z,214
2023-05-10T03:01:32.443Z,214
2023-05-10T03:02:04.505Z,211
2023-05-10T03:02:36.442Z,214
2023-05-10T03:03:08.228Z,214
2023-05-10T03:03:40.432Z,214
2023-05-10T03:04:12.419Z,209
2023-05-10T03:04:44.337Z,214
2023-05-10T03:05:16.420Z,214
2023-05-10T03:05:48.301Z,214
2023-05-10T03:06:20.281Z,214
2023-05-10T03:06:52.249Z,214
2023-05-10T03:07:24.181Z,213
2023-05-10T03:07:56.111Z,213
2023-05-10T03:08:28.160Z,213
2023-05-10T03:09:00.283Z,212
2023-05-10T03:09:32.037Z,213
2023-05-10T03:10:04.143Z,213
2023-05-10T03:10:36.175Z,213
2023-05-10T03:11:08.148Z,213
2023-05-10T03:11:39.990Z,213
2023-05-10T03:12:11.974Z,213
2023-05-10T03:12:44.052Z,213
2023-05-10T03:13:16.019Z,213
2023-05-10T03:13:47.974Z,212
2023-05-10T03:14:19.877Z,212
2023-05-10T03:14:52.014Z,212
2023-05-10T03:15:23.896Z,212
2023-05-10T03:15:55.794Z,212
2023-05-10T03:16:28.122Z,214
2023-05-10T03:16:59.797Z,214
2023-05-10T03:17:31.829Z,214
2023-05-10T03:18:03.676Z,213
2023-05-10T03:18:35.714Z,213
2023-05-10T03:19:07.910Z,213
2023-05-10T03:19:39.581Z,213
2023-05-10T03:20:11.815Z,213
2023-05-10T03:20:43.749Z,213
2023-05-10T03:21:15.855Z,213
2023-05-10T03:21:47.370Z,213
2023-05-10T03:22:19.417Z,213
2023-05-10T03:22:51.526Z,213
2023-05-10T03:23:23.539Z,213
2023-05-10T03:23:55.270Z,213
2023-05-10T03:24:27.524Z,213
2023-05-10T03:24:59.465Z,213
2023-05-10T03:25:31.591Z,213
2023-05-10T03:26:03.378Z,201
2023-05-10T03:26:35.350Z,213
2023-05-10T03:27:07.420Z,213
2023-05-10T03:27:39.524Z,213
2023-05-10T03:28:11.585Z,213
2023-05-10T03:28:43.425Z,213
2023-05-10T03:29:15.325Z,214
2023-05-10T03:29:47.342Z,214
2023-05-10T03:30:19.423Z,214
2023-05-10T03:30:51.366Z,213
2023-05-10T03:31:23.286Z,213
2023-05-10T03:31:55.387Z,214
2023-05-10T03:32:27.238Z,214
2023-05-10T03:32:59.307Z,214
2023-05-10T03:33:31.340Z,214
2023-05-10T03:34:03.154Z,214
2023-05-10T03:34:34.995Z,214
2023-05-10T03:35:07.125Z,214
2023-05-10T03:35:39.167Z,214
2023-05-10T03:36:11.250Z,214
2023-05-10T03:36:43.045Z,214
2023-05-10T03:37:14.851Z,214
2023-05-10T03:37:47.066Z,214
2023-05-10T03:38:19.005Z,214
2023-05-10T03:38:51.036Z,214
2023-05-10T03:39:22.952Z,214
2023-05-10T03:39:54.754Z,214
2023-05-10T03:40:27.028Z,214
2023-05-10T03:40:58.798Z,214
2023-05-10T03:41:30.988Z,214
2023-05-10T03:42:02.666Z,214
2023-05-10T03:42:34.723Z,214
2023-05-10T03:43:06.725Z,214
2023-05-10T03:43:38.843Z,214
2023-05-10T03:44:10.869Z,214
2023-05-10T03:44:42.636Z,214
2023-05-10T03:45:14.840Z,214
2023-05-10T03:45:46.912Z,214
2023-05-10T03:46:18.635Z,214
2023-05-10T03:46:50.616Z,214
2023-05-10T03:47:22.557Z,214
2023-05-10T03:47:54.708Z,214
2023-05-10T03:48:26.509Z,214
2023-05-10T03:48:58.684Z,214
2023-05-10T03:49:30.609Z,214
2023-05-10T03:50:02.463Z,214
2023-05-10T03:50:34.469Z,214
2023-05-10T03:51:06.363Z,214
2023-05-10T03:51:38.537Z,214
2023-05-10T03:52:10.290Z,214
2023-05-10T03:52:42.195Z,214
2023-05-10T03:53:14.278Z,214
2023-05-10T03:53:46.342Z,214
2023-05-10T03:54:18.046Z,214
2023-05-10T03:54:50.135Z,214
2023-05-10T03:55:22.201Z,214
2023-05-10T03:55:54.212Z,214
2023-05-10T03:56:26.106Z,214
2023-05-10T03:56:58.186Z,214
2023-05-10T03:57:30.121Z,214
2023-05-10T03:58:02.153Z,214
2023-05-10T03:58:33.991Z,214
2023-05-10T03:59:06.281Z,214
2023-05-10T03:59:38.054Z,214
2023-05-10T04:00:10.528Z,214
2023-05-10T04:00:41.936Z,214
2023-05-10T04:01:14.048Z,214
2023-05-10T04:01:46.022Z,214
2023-05-10T04:02:18.176Z,214
2023-05-10T04:02:50.065Z,214
2023-05-10T04:03:22.231Z,214
2023-05-10T04:03:53.921Z,214
2023-05-10T04:04:25.878Z,214
2023-05-10T04:04:57.740Z,214
2023-05-10T04:05:29.861Z,214
2023-05-10T04:06:01.966Z,214
2023-05-10T04:06:34.473Z,214
2023-05-10T04:07:05.685Z,214
2023-05-10T04:07:37.831Z,214
2023-05-10T04:08:09.788Z,214
2023-05-10T04:08:41.668Z,214
2023-05-10T04:09:13.649Z,214
2023-05-10T04:09:45.577Z,214
2023-05-10T04:10:17.938Z,214
2023-05-10T04:10:49.497Z,214
2023-05-10T04:11:21.524Z,214
2023-05-10T04:11:53.388Z,214
2023-05-10T04:12:25.536Z,214
2023-05-10T04:12:57.556Z,214
2023-05-10T04:13:29.523Z,214
2023-05-10T04:14:01.596Z,214
2023-05-10T04:14:33.433Z,214
2023-05-10T04:15:05.605Z,214
2023-05-10T04:15:37.329Z,214
2023-05-10T04:16:09.672Z,214
2023-05-10T04:16:41.686Z,214
2023-05-10T04:17:13.243Z,214
2023-05-10T04:17:45.728Z,214
2023-05-10T04:18:17.330Z,214
2023-05-10T04:18:49.180Z,214
2023-05-10T04:19:21.257Z,214
2023-05-10T04:19:53.226Z,214
2023-05-10T04:20:25.288Z,214
2023-05-10T04:20:57.306Z,214
2023-05-10T04:21:29.061Z,214
2023-05-10T04:22:01.229Z,214
2023-05-10T04:22:33.581Z,214
2023-05-10T04:23:05.119Z,214
2023-05-10T04:23:36.973Z,214
2023-05-10T04:24:09.167Z,214
2023-05-10T04:24:41.302Z,214
2023-05-10T04:25:12.914Z,214
2023-05-10T04:25:44.823Z,214
2023-05-10T04:26:16.968Z,214
2023-05-10T04:26:48.788Z,214
2023-05-10T04:27:21.105Z,214
2023-05-10T04:27:52.737Z,214
2023-05-10T04:28:24.792Z,214
2023-05-10T04:28:56.858Z,214
2023-05-10T04:29:28.862Z,214
2023-05-10T04:30:01.229Z,214
2023-05-10T04:30:32.779Z,214
2023-05-10T04:31:04.904Z,214
2023-05-10T04:31:36.751Z,214
2023-05-10T04:32:08.848Z,214
2023-05-10T04:32:40.755Z,214
2023-05-10T04:33:12.827Z,214
2023-05-10T04:33:44.664Z,214
2023-05-10T04:34:16.510Z,214
2023-05-10T04:34:48.810Z,214
2023-05-10T04:35:21.225Z,214
2023-05-10T04:35:52.455Z,214
2023-05-10T04:36:24.434Z,214
2023-05-10T04:36:56.409Z,214
2023-05-10T04:37:28.465Z,214
2023-05-10T04:38:00.865Z,214
2023-05-10T04:38:32.419Z,214
2023-05-10T04:39:04.575Z,214
2023-05-10T04:39:36.380Z,214
2023-05-10T04:40:08.257Z,214
2023-05-10T04:40:40.362Z,213
2023-05-10T04:41:12.370Z,209
2023-05-10T04:41:44.386Z,213
2023-05-10T04:42:16.114Z,226
2023-05-10T04:42:48.196Z,226
2023-05-10T04:43:20.255Z,226
2023-05-10T04:43:52.216Z,226
2023-05-10T04:44:24.046Z,226
2023-05-10T04:44:56.056Z,226
2023-05-10T04:45:28.214Z,224
2023-05-10T04:46:00.397Z,223
2023-05-10T04:46:32.067Z,221
2023-05-10T04:47:04.082Z,212
2023-05-10T04:47:36.028Z,220
2023-05-10T04:48:08.096Z,202
2023-05-10T04:48:39.899Z,222
2023-05-10T04:49:11.899Z,224
2023-05-10T04:49:44.147Z,224
2023-05-10T04:50:16.277Z,225
2023-05-10T04:50:47.980Z,230
2023-05-10T04:51:19.905Z,230
2023-05-10T04:51:51.924Z,230
2023-05-10T04:52:23.907Z,230
2023-05-10T04:52:55.590Z,230
2023-05-10T04:53:27.962Z,230
2023-05-10T04:54:05.955Z,230
2023-05-10T04:54:31.685Z,229
2023-05-10T04:55:04.098Z,228
2023-05-10T04:55:35.744Z,228
2023-05-10T04:56:07.587Z,228
2023-05-10T04:56:39.716Z,228
2023-05-10T04:57:11.620Z,228
2023-05-10T04:57:43.531Z,229
2023-05-10T04:58:15.552Z,229
2023-05-10T04:58:47.629Z,229
2023-05-10T04:59:19.449Z,229
2023-05-10T04:59:51.612Z,229
2023-05-10T05:00:23.583Z,229
2023-05-10T05:00:55.751Z,229
2023-05-10T05:01:27.358Z,229
2023-05-10T05:01:59.763Z,229
2023-05-10T05:02:31.570Z,229
2023-05-10T05:03:03.583Z,229
2023-05-10T05:03:35.420Z,229
2023-05-10T05:04:07.400Z,207
2023-05-10T05:04:39.382Z,214
2023-05-10T05:05:11.411Z,225
2023-05-10T05:05:43.258Z,219
2023-05-10T05:06:15.191Z,216
2023-05-10T05:06:47.277Z,214
2023-05-10T05:07:19.236Z,216
2023-05-10T05:07:51.295Z,216
2023-05-10T05:08:23.234Z,216
2023-05-10T05:08:55.136Z,216
2023-05-10T05:09:26.978Z,215
2023-05-10T05:09:59.028Z,220
2023-05-10T05:10:31.411Z,210
2023-05-10T05:11:03.206Z,221
2023-05-10T05:11:34.884Z,220
2023-05-10T05:12:07.456Z,220
2023-05-10T05:12:39.118Z,216
2023-05-10T05:13:11.207Z,213
2023-05-10T05:13:42.914Z,214
2023-05-10T05:14:14.869Z,218
2023-05-10T05:14:46.845Z,218
2023-05-10T05:15:19.049Z,219
2023-05-10T05:15:51.058Z,216
2023-05-10T05:16:22.795Z,216
2023-05-10T05:16:54.745Z,211
2023-05-10T05:17:26.885Z,213
2023-05-10T05:17:58.664Z,218
2023-05-10T05:18:30.959Z,219
2023-05-10T05:19:02.677Z,219
2023-05-10T05:19:34.738Z,219
2023-05-10T05:20:06.573Z,218
2023-05-10T05:20:38.635Z,218
2023-05-10T05:21:10.826Z,219
2023-05-10T05:21:42.998Z,209
2023-05-10T05:22:14.519Z,181
2023-05-10T05:22:46.477Z,211
2023-05-10T05:23:18.608Z,220
2023-05-10T05:23:50.909Z,225
2023-05-10T05:24:22.481Z,218
2023-05-10T05:24:54.261Z,221
2023-05-10T05:25:26.525Z,222
2023-05-10T05:25:58.442Z,223
2023-05-10T05:26:30.184Z,216
2023-05-10T05:27:02.356Z,210
2023-05-10T05:27:34.226Z,223
2023-05-10T05:28:06.365Z,222
2023-05-10T05:28:38.305Z,218
2023-05-10T05:29:10.230Z,217
2023-05-10T05:29:42.443Z,216
2023-05-10T05:30:14.461Z,221
2023-05-10T05:30:46.425Z,223
2023-05-10T05:31:18.676Z,223
2023-05-10T05:31:50.212Z,204
2023-05-10T05:32:22.191Z,194
2023-05-10T05:32:54.058Z,221
2023-05-10T05:33:26.218Z,223
2023-05-10T05:33:58.069Z,223
2023-05-10T05:34:30.165Z,215
2023-05-10T05:35:02.139Z,217
2023-05-10T05:35:34.056Z,204
2023-05-10T05:36:05.915Z,219
2023-05-10T05:36:38.148Z,213
2023-05-10T05:37:10.014Z,199
2023-05-10T05:37:41.767Z,205
2023-05-10T05:38:13.981Z,216
2023-05-10T05:38:46.021Z,218
2023-05-10T05:39:17.806Z,222
2023-05-10T05:39:49.789Z,223
2023-05-10T05:40:21.859Z,223
2023-05-10T05:40:53.541Z,222
2023-05-10T05:41:25.764Z,223
2023-05-10T05:41:57.692Z,223
2023-05-10T05:42:29.840Z,223
2023-05-10T05:43:01.817Z,223
2023-05-10T05:43:35.025Z,222
2023-05-10T05:44:05.729Z,222
2023-05-10T05:44:37.776Z,216
2023-05-10T05:45:09.671Z,224
2023-05-10T05:45:41.646Z,216
2023-05-10T05:46:13.643Z,217
2023-05-10T05:46:45.625Z,210
2023-05-10T05:47:17.360Z,220
2023-05-10T05:47:49.322Z,218
2023-05-10T05:48:21.728Z,215
2023-05-10T05:48:53.380Z,217
2023-05-10T05:49:25.338Z,217
2023-05-10T05:49:57.570Z,217
2023-05-10T05:50:29.384Z,216
2023-05-10T05:51:01.487Z,216
2023-05-10T05:51:33.265Z,217
2023-05-10T05:52:05.370Z,217
2023-05-10T05:52:37.338Z,217
2023-05-10T05:53:09.123Z,216
2023-05-10T05:53:41.363Z,216
2023-05-10T05:54:13.209Z,216
2023-05-10T05:54:45.329Z,216
2023-05-10T05:55:17.313Z,216
2023-05-10T05:55:49.118Z,215
2023-05-10T05:56:21.232Z,217
2023-05-10T05:56:53.186Z,216
2023-05-10T05:57:24.951Z,217
2023-05-10T05:57:56.979Z,216
2023-05-10T05:58:29.081Z,215
2023-05-10T05:59:01.297Z,217
2023-05-10T05:59:33.573Z,218
2023-05-10T06:00:05.259Z,218
2023-05-10T06:00:37.090Z,218
2023-05-10T06:01:09.283Z,218
2023-05-10T06:01:41.099Z,218
2023-05-10T06:02:12.919Z,218
2023-05-10T06:02:45.120Z,217
2023-05-10T06:03:16.962Z,216
2023-05-10T06:03:50.390Z,216
2023-05-10T06:04:21.103Z,216
2023-05-10T06:04:52.978Z,216
2023-05-10T06:05:24.820Z,216
2023-05-10T06:05:56.616Z,215
2023-05-10T06:06:28.641Z,208
2023-05-10T06:07:01.124Z,197
2023-05-10T06:07:32.708Z,219
2023-05-10T06:08:04.671Z,190
2023-05-10T06:08:36.727Z,215
2023-05-10T06:09:08.615Z,216
2023-05-10T06:09:40.746Z,223
2023-05-10T06:10:12.482Z,219
2023-05-10T06:10:44.475Z,219
2023-05-10T06:11:16.628Z,223
2023-05-10T06:11:48.623Z,223
2023-05-10T06:12:20.522Z,222
2023-05-10T06:12:52.520Z,219
2023-05-10T06:13:24.466Z,220
2023-05-10T06:13:56.444Z,218
2023-05-10T06:14:28.373Z,216
2023-05-10T06:15:00.820Z,219
2023-05-10T06:15:32.355Z,220
2023-05-10T06:16:04.400Z,220
2023-05-10T06:16:36.270Z,220
2023-05-10T06:17:09.116Z,220
2023-05-10T06:17:40.271Z,220
2023-05-10T06:18:12.318Z,220
2023-05-10T06:18:44.285Z,220
2023-05-10T06:19:16.218Z,220
2023-05-10T06:19:48.338Z,220
2023-05-10T06:20:20.041Z,220
2023-05-10T06:20:52.055Z,214
2023-05-10T06:21:24.147Z,218
2023-05-10T06:21:56.471Z,219
2023-05-10T06:22:27.940Z,219
2023-05-10T06:23:00.001Z,219
2023-05-10T06:23:31.990Z,210
2023-05-10T06:24:04.216Z,217
2023-05-10T06:24:35.879Z,214
2023-05-10T06:25:07.931Z,219
2023-05-10T06:25:39.839Z,221
2023-05-10T06:26:11.887Z,220
2023-05-10T06:26:43.812Z,220
2023-05-10T06:27:15.761Z,220
2023-05-10T06:27:51.110Z,220
2023-05-10T06:28:19.832Z,220
2023-05-10T06:28:51.717Z,220
2023-05-10T06:29:23.997Z,220
2023-05-10T06:30:02.143Z,210
2023-05-10T06:30:27.757Z,221
2023-05-10T06:30:59.719Z,203
2023-05-10T06:31:31.758Z,212
2023-05-10T06:32:03.773Z,220
2023-05-10T06:32:35.825Z,221
2023-05-10T06:33:07.708Z,218
2023-05-10T06:33:39.543Z,218
2023-05-10T06:34:11.539Z,218
2023-05-10T06:34:43.719Z,218
2023-05-10T06:35:15.609Z,219
2023-05-10T06:35:47.640Z,219
2023-05-10T06:36:19.331Z,219
2023-05-10T06:36:51.668Z,219
2023-05-10T06:37:23.335Z,219
2023-05-10T06:37:55.309Z,219
2023-05-10T06:38:27.437Z,219
2023-05-10T06:38:59.581Z,219
2023-05-10T06:39:31.417Z,217
2023-05-10T06:40:03.435Z,218
2023-05-10T06:40:35.335Z,218
2023-05-10T06:41:07.323Z,218
2023-05-10T06:41:39.279Z,218
2023-05-10T06:42:11.509Z,218
2023-05-10T06:42:43.217Z,218
2023-05-10T06:43:15.209Z,218
2023-05-10T06:43:47.061Z,218
2023-05-10T06:44:19.197Z,218
2023-05-10T06:44:51.364Z,218
2023-05-10T06:45:23.207Z,218
2023-05-10T06:45:55.055Z,218
2023-05-10T06:46:27.110Z,218
2023-05-10T06:46:59.128Z,218
2023-05-10T06:47:31.446Z,217
2023-05-10T06:48:03.009Z,217
2023-05-10T06:48:34.931Z,217
2023-05-10T06:49:07.062Z,217
2023-05-10T06:49:39.104Z,217
2023-05-10T06:50:11.166Z,217
2023-05-10T06:50:42.794Z,215
2023-05-10T06:51:14.851Z,217
2023-05-10T06:51:46.694Z,217
2023-05-10T06:52:18.733Z,217
2023-05-10T06:52:52.970Z,217
2023-05-10T06:53:22.736Z,217
2023-05-10T06:53:54.915Z,217
2023-05-10T06:54:26.621Z,217
2023-05-10T06:54:58.786Z,217
2023-05-10T06:55:30.962Z,217
2023-05-10T06:56:02.531Z,217
2023-05-10T06:56:34.525Z,217
2023-05-10T06:57:13.070Z,217
2023-05-10T06:57:38.602Z,217
2023-05-10T06:58:10.403Z,217
2023-05-10T06:58:42.607Z,217
2023-05-10T06:59:14.659Z,217
2023-05-10T06:59:46.515Z,218
2023-05-10T07:00:19.059Z,218
2023-05-10T07:00:50.468Z,218
2023-05-10T07:01:22.466Z,218
2023-05-10T07:01:54.494Z,218
2023-05-10T07:02:26.371Z,218
2023-05-10T07:02:58.323Z,218
2023-05-10T07:03:30.352Z,218
2023-05-10T07:04:02.442Z,218
2023-05-10T07:04:34.314Z,218
2023-05-10T07:05:06.287Z,218
2023-05-10T07:05:38.255Z,218
2023-05-10T07:06:21.719Z,218
2023-05-10T07:06:42.089Z,218
2023-05-10T07:07:14.167Z,218
2023-05-10T07:07:46.097Z,218
2023-05-10T07:08:18.238Z,218
2023-05-10T07:08:50.115Z,218
2023-05-10T07:09:22.052Z,217
2023-05-10T07:09:54.117Z,218
2023-05-10T07:10:26.076Z,218
2023-05-10T07:10:57.936Z,229
2023-05-10T07:11:29.913Z,228
2023-05-10T07:12:02.105Z,228
2023-05-10T07:12:34.124Z,223
2023-05-10T07:13:05.851Z,223
2023-05-10T07:13:37.880Z,223
2023-05-10T07:14:09.892Z,223
2023-05-10T07:14:42.078Z,223
2023-05-10T07:15:13.944Z,224
2023-05-10T07:15:45.766Z,224
2023-05-10T07:16:18.141Z,223
2023-05-10T07:16:49.961Z,223
2023-05-10T07:17:21.783Z,223
2023-05-10T07:17:53.816Z,237
2023-05-10T07:18:25.700Z,236
2023-05-10T07:18:57.634Z,241
2023-05-10T07:19:29.549Z,250
2023-05-10T07:20:01.797Z,256
2023-05-10T07:20:33.769Z,232